createdAt,value
2023-04-13T00:01:58.923Z,-23360.16
2023-04-13T00:04:05.037Z,-23358.91
2023-04-13T00:06:10.823Z,-23357.78
2023-04-13T00:08:13.929Z,-23356.19
2023-04-13T00:10:19.123Z,-23353.19
2023-04-13T00:12:21.845Z,-23354.75
2023-04-13T00:14:27.567Z,-23353.50
2023-04-13T00:16:32.332Z,-23352.53
2023-04-13T00:18:35.378Z,-23352.69
2023-04-13T00:20:38.308Z,-23352.84
2023-04-13T00:22:45.190Z,-23352.53
2023-04-13T00:24:47.926Z,-23354.44
2023-04-13T00:26:51.547Z,-23354.75
2023-04-13T00:28:54.192Z,-23355.25
2023-04-13T00:30:57.285Z,-23354.28
2023-04-13T00:33:03.546Z,-23356.34
2023-04-13T00:35:07.257Z,-23356.34
2023-04-13T00:37:09.910Z,-23355.88
2023-04-13T00:39:13.533Z,-23355.41
2023-04-13T00:41:16.289Z,-23355.72
2023-04-13T00:43:19.059Z,-23358.25
2023-04-13T00:45:21.762Z,-23357.78
2023-04-13T00:47:29.003Z,-23360.97
2023-04-13T00:49:34.559Z,-23358.59
2023-04-13T00:51:37.393Z,-23355.88
2023-04-13T00:53:40.213Z,-23356.84
2023-04-13T00:55:43.215Z,-23355.56
2023-04-13T00:57:45.929Z,-23354.94
2023-04-13T00:59:49.617Z,-23355.41
2023-04-13T01:01:56.654Z,-23353.81
2023-04-13T01:03:59.572Z,-23354.13
2023-04-13T01:06:18.062Z,-23353.19
2023-04-13T01:08:28.549Z,-23354.44
2023-04-13T01:10:37.874Z,-23355.09
2023-04-13T01:12:44.052Z,-23352.53
2023-04-13T01:14:52.976Z,-23352.69
2023-04-13T01:16:58.425Z,-23352.06
2023-04-13T01:19:01.938Z,-23352.53
2023-04-13T01:21:07.934Z,-23352.84
2023-04-13T01:23:17.238Z,-23352.22
2023-04-13T01:25:31.888Z,-23349.66
2023-04-13T01:27:46.967Z,-23351.41
2023-04-13T01:29:51.908Z,-23350.16
2023-04-13T01:31:56.642Z,-23350.94
2023-04-13T01:33:59.700Z,-23352.84
2023-04-13T01:36:03.113Z,-23352.84
2023-04-13T01:38:06.672Z,-23352.53
2023-04-13T01:40:11.372Z,-23352.84
2023-04-13T01:42:14.086Z,-23349.66
2023-04-13T01:44:18.151Z,-23350.00
2023-04-13T01:46:27.553Z,-23352.22
2023-04-13T01:48:36.030Z,-23349.34
2023-04-13T01:50:42.505Z,-23349.66
2023-04-13T01:52:45.555Z,-23344.59
2023-04-13T01:54:50.553Z,-23343.78
2023-04-13T01:56:57.028Z,-23343.00
2023-04-13T01:59:00.729Z,-23340.75
2023-04-13T02:01:07.902Z,-23341.25
2023-04-13T02:03:12.189Z,-23343.00
2023-04-13T02:05:15.005Z,-23342.19
2023-04-13T02:07:17.748Z,-23340.75
2023-04-13T02:09:20.335Z,-23340.75
2023-04-13T02:11:23.084Z,-23342.34
2023-04-13T02:13:26.313Z,-23342.81
2023-04-13T02:15:29.046Z,-23342.03
2023-04-13T02:17:33.080Z,-23341.41
2023-04-13T02:19:35.750Z,-23341.41
2023-04-13T02:21:38.463Z,-23342.03
2023-04-13T02:23:42.190Z,-23341.06
2023-04-13T02:25:47.849Z,-23342.03
2023-04-13T02:27:51.469Z,-23345.84
2023-04-13T02:29:55.111Z,-23344.91
2023-04-13T02:31:57.911Z,-23346.00
2023-04-13T02:34:02.008Z,-23345.06
2023-04-13T02:36:05.638Z,-23346.00
2023-04-13T02:38:09.657Z,-23343.94
2023-04-13T02:40:12.586Z,-23343.00
2023-04-13T02:42:15.331Z,-23347.75
2023-04-13T02:44:18.234Z,-23346.97
2023-04-13T02:46:21.832Z,-23345.53
2023-04-13T02:48:25.696Z,-23345.22
2023-04-13T02:50:29.854Z,-23344.25
2023-04-13T02:52:32.569Z,-23343.31
2023-04-13T02:54:35.274Z,-23345.06
2023-04-13T02:56:38.078Z,-23344.25
2023-04-13T02:58:41.793Z,-23342.03
2023-04-13T03:00:44.648Z,-23343.00
2023-04-13T03:02:47.740Z,-23341.56
2023-04-13T03:04:50.653Z,-23340.44
2023-04-13T03:06:55.071Z,-23339.16
2023-04-13T03:08:57.696Z,-23339.50
2023-04-13T03:11:00.772Z,-23341.25
2023-04-13T03:13:03.466Z,-23341.06
2023-04-13T03:15:10.877Z,-23340.59
2023-04-13T03:17:14.793Z,-23340.91
2023-04-13T03:19:17.698Z,-23340.91
2023-04-13T03:21:20.624Z,-23340.59
2023-04-13T03:23:24.654Z,-23340.13
2023-04-13T03:25:27.331Z,-23340.59
2023-04-13T03:27:29.980Z,-23344.91
2023-04-13T03:29:32.678Z,-23344.09
2023-04-13T03:31:35.390Z,-23348.88
2023-04-13T03:33:38.185Z,-23348.72
2023-04-13T03:35:41.014Z,-23346.81
2023-04-13T03:37:44.732Z,-23348.72
2023-04-13T03:39:48.908Z,-23350.63
2023-04-13T03:41:51.542Z,-23351.25
2023-04-13T03:43:54.362Z,-23350.94
2023-04-13T03:45:57.344Z,-23351.25
2023-04-13T03:48:00.293Z,-23348.41
2023-04-13T03:50:03.648Z,-23353.19
2023-04-13T03:52:06.289Z,-23349.34
2023-04-13T03:54:08.910Z,-23353.19
2023-04-13T03:56:12.953Z,-23348.22
2023-04-13T03:58:15.665Z,-23351.59
2023-04-13T04:00:18.954Z,-23347.75
2023-04-13T04:02:21.717Z,-23346.16
2023-04-13T04:04:24.638Z,-23346.66
2023-04-13T04:06:28.265Z,-23345.69
2023-04-13T04:08:32.570Z,-23348.88
2023-04-13T04:10:36.361Z,-23346.97
2023-04-13T04:12:40.330Z,-23347.75
2023-04-13T04:14:42.957Z,-23349.50
2023-04-13T04:16:45.766Z,-23347.44
2023-04-13T04:18:48.522Z,-23347.44
2023-04-13T04:20:51.297Z,-23349.03
2023-04-13T04:22:54.085Z,-23350.00
2023-04-13T04:24:59.007Z,-23348.09
2023-04-13T04:27:02.560Z,-23350.00
2023-04-13T04:29:08.855Z,-23349.34
2023-04-13T04:31:11.669Z,-23348.09
2023-04-13T04:33:14.416Z,-23348.72
2023-04-13T04:35:19.330Z,-23351.91
2023-04-13T04:37:23.333Z,-23351.72
2023-04-13T04:39:26.807Z,-23347.13
2023-04-13T04:41:31.057Z,-23350.31
2023-04-13T04:43:35.818Z,-23348.09
2023-04-13T04:45:41.784Z,-23347.91
2023-04-13T04:47:44.672Z,-23347.28
2023-04-13T04:49:47.479Z,-23347.13
2023-04-13T04:51:50.398Z,-23348.41
2023-04-13T04:53:53.684Z,-23348.88
2023-04-13T04:55:56.515Z,-23347.13
2023-04-13T04:57:59.118Z,-23349.03
2023-04-13T05:00:02.122Z,-23346.16
2023-04-13T05:02:06.229Z,-23346.31
2023-04-13T05:04:09.004Z,-23345.53
2023-04-13T05:06:11.667Z,-23347.91
2023-04-13T05:08:14.365Z,-23347.13
2023-04-13T05:10:17.037Z,-23349.19
2023-04-13T05:12:19.769Z,-23350.47
2023-04-13T05:14:22.501Z,-23348.72
2023-04-13T05:16:26.002Z,-23351.91
2023-04-13T05:18:32.391Z,-23350.31
2023-04-13T05:20:35.256Z,-23350.31
2023-04-13T05:22:37.954Z,-23350.94
2023-04-13T05:24:40.641Z,-23354.94
2023-04-13T05:26:43.382Z,-23350.63
2023-04-13T05:28:46.109Z,-23351.59
2023-04-13T05:30:49.259Z,-23352.84
2023-04-13T05:32:52.120Z,-23351.72
2023-04-13T05:34:56.266Z,-23353.19
2023-04-13T05:36:59.659Z,-23352.53
2023-04-13T05:39:04.449Z,-23352.84
2023-04-13T05:41:08.070Z,-23359.38
2023-04-13T05:43:11.114Z,-23356.03
2023-04-13T05:45:17.113Z,-23353.50
2023-04-13T05:47:22.464Z,-23353.19
2023-04-13T05:49:25.952Z,-23354.94
2023-04-13T05:51:31.859Z,-23353.81
2023-04-13T05:53:34.491Z,-23352.53
2023-04-13T05:55:37.164Z,-23352.53
2023-04-13T05:57:40.076Z,-23353.34
2023-04-13T05:59:42.707Z,-23354.75
2023-04-13T06:01:46.248Z,-23354.28
2023-04-13T06:03:49.077Z,-23355.09
2023-04-13T06:05:52.838Z,-23357.16
2023-04-13T06:07:56.856Z,-23358.59
2023-04-13T06:10:00.832Z,-23357.31
2023-04-13T06:12:04.176Z,-23358.25
2023-04-13T06:14:06.834Z,-23359.69
2023-04-13T06:16:10.351Z,-23360.81
2023-04-13T06:18:13.179Z,-23359.69
2023-04-13T06:20:16.318Z,-23364.31
2023-04-13T06:22:19.001Z,-23364.00
2023-04-13T06:24:23.043Z,-23361.94
2023-04-13T06:26:25.713Z,-23364.00
2023-04-13T06:28:30.491Z,-23365.75
2023-04-13T06:30:33.250Z,-23366.84
2023-04-13T06:32:36.049Z,-23366.69
2023-04-13T06:34:39.083Z,-23369.41
2023-04-13T06:36:41.774Z,-23368.13
2023-04-13T06:38:44.462Z,-23375.13
2023-04-13T06:40:48.450Z,-23373.53
2023-04-13T06:42:51.078Z,-23391.00
2023-04-13T06:44:53.729Z,-23399.13
2023-04-13T06:46:56.668Z,-23411.66
2023-04-13T06:48:59.622Z,-23418.97
2023-04-13T06:51:02.562Z,-23435.47
2023-04-13T06:53:05.206Z,-23422.31
2023-04-13T06:55:08.303Z,-23424.38
2023-04-13T06:57:13.338Z,-23403.88
2023-04-13T06:59:16.111Z,-23400.88
2023-04-13T07:01:18.886Z,-23399.13
2023-04-13T07:03:21.647Z,-23393.56
2023-04-13T07:05:24.771Z,-23393.41
2023-04-13T07:07:27.489Z,-23392.91
2023-04-13T07:09:30.465Z,-23410.56
2023-04-13T07:11:33.237Z,-23403.25
2023-04-13T07:13:37.315Z,-23405.47
2023-04-13T07:15:40.516Z,-23402.94
2023-04-13T07:17:43.283Z,-23399.59
2023-04-13T07:19:47.797Z,-23388.16
2023-04-13T07:21:50.478Z,-23383.69
2023-04-13T07:23:53.127Z,-23381.63
2023-04-13T07:25:56.004Z,-23376.06
2023-04-13T07:27:58.730Z,-23382.59
2023-04-13T07:30:03.046Z,-23386.56
2023-04-13T07:32:08.192Z,-23384.03
2023-04-13T07:34:12.183Z,-23383.53
2023-04-13T07:36:14.856Z,-23385.78
2023-04-13T07:38:17.680Z,-23378.63
2023-04-13T07:40:20.603Z,-23382.13
2023-04-13T07:42:23.339Z,-23384.03
2023-04-13T07:44:25.977Z,-23385.59
2023-04-13T07:46:30.165Z,-23381.47
2023-04-13T07:48:32.955Z,-23380.22
2023-04-13T07:50:41.449Z,-23383.38
2023-04-13T07:52:44.080Z,-23382.91
2023-04-13T07:54:46.764Z,-23382.59
2023-04-13T07:56:49.434Z,-23386.09
2023-04-13T07:58:52.187Z,-23379.56
2023-04-13T08:00:55.070Z,-23380.22
2023-04-13T08:02:59.179Z,-23384.34
2023-04-13T08:05:02.275Z,-23389.09
2023-04-13T08:07:05.649Z,-23396.41
2023-04-13T08:09:09.450Z,-23403.09
2023-04-13T08:11:12.139Z,-23411.66
2023-04-13T08:13:14.908Z,-23408.50
2023-04-13T08:15:18.198Z,-23427.84
2023-04-13T08:17:21.729Z,-23416.09
2023-04-13T08:19:25.920Z,-23407.38
2023-04-13T08:21:29.831Z,-23412.31
2023-04-13T08:23:32.782Z,-23420.25
2023-04-13T08:25:40.583Z,-23415.47
2023-04-13T08:27:43.249Z,-23412.13
2023-04-13T08:29:46.505Z,-23398.31
2023-04-13T08:31:49.218Z,-23401.50
2023-04-13T08:33:52.142Z,-23412.94
2023-04-13T08:35:56.608Z,-23410.88
2023-04-13T08:38:00.854Z,-23412.94
2023-04-13T08:40:07.336Z,-23419.94
2023-04-13T08:42:10.896Z,-23414.22
2023-04-13T08:44:14.218Z,-23405.47
2023-04-13T08:46:19.433Z,-23402.78
2023-04-13T08:48:23.651Z,-23399.44
2023-04-13T08:50:27.240Z,-23395.16
2023-04-13T08:52:31.451Z,-23396.88
2023-04-13T08:54:35.137Z,-23407.38
2023-04-13T08:56:45.928Z,-23417.38
2023-04-13T08:58:53.835Z,-23408.16
2023-04-13T09:00:56.492Z,-23410.72
2023-04-13T09:03:06.241Z,-23409.44
2023-04-13T09:05:16.070Z,-23413.56
2023-04-13T09:07:26.675Z,-23407.22
2023-04-13T09:09:32.850Z,-23417.06
2023-04-13T09:11:35.641Z,-23426.75
2023-04-13T09:13:38.349Z,-23426.59
2023-04-13T09:15:42.758Z,-23431.34
2023-04-13T09:17:45.748Z,-23431.69
2023-04-13T09:19:48.462Z,-23432.94
2023-04-13T09:21:51.153Z,-23433.41
2023-04-13T09:23:55.698Z,-23440.56
2023-04-13T09:26:09.846Z,-23452.47
2023-04-13T09:28:19.249Z,-23465.31
2023-04-13T09:30:23.457Z,-23512.84
2023-04-13T09:32:27.976Z,-23476.09
2023-04-13T09:34:30.623Z,-23489.72
2023-04-13T09:36:33.576Z,-23522.19
2023-04-13T09:38:36.341Z,-23513.19
2023-04-13T09:40:49.085Z,-23485.28
2023-04-13T09:42:57.962Z,-23516.50
2023-04-13T09:45:00.932Z,-23470.06
2023-04-13T09:47:06.975Z,-23473.25
2023-04-13T09:49:10.092Z,-23453.56
2023-04-13T09:51:13.157Z,-23449.28
2023-04-13T09:53:15.828Z,-23453.91
2023-04-13T09:55:18.743Z,-23457.06
2023-04-13T09:57:25.748Z,-23443.41
2023-04-13T09:59:31.034Z,-23443.41
2023-04-13T10:01:34.461Z,-23445.97
2023-04-13T10:03:38.180Z,-23440.88
2023-04-13T10:05:58.054Z,-23451.03
2023-04-13T10:08:02.521Z,-23455.16
2023-04-13T10:10:05.449Z,-23460.88
2023-04-13T10:12:12.001Z,-23445.16
2023-04-13T10:14:18.979Z,-23446.59
2023-04-13T10:16:40.321Z,-23447.53
2023-04-13T10:18:57.811Z,-23442.47
2023-04-13T10:21:01.759Z,-23442.47
2023-04-13T10:23:05.561Z,-23437.41
2023-04-13T10:25:21.702Z,-23431.53
2023-04-13T10:27:32.686Z,-23438.50
2023-04-13T10:29:35.563Z,-23440.25
2023-04-13T10:31:41.796Z,-23442.00
2023-04-13T10:33:49.042Z,-23441.03
2023-04-13T10:35:58.664Z,-23442.94
2023-04-13T10:38:01.801Z,-23445.00
2023-04-13T10:40:07.735Z,-23440.41
2023-04-13T10:42:12.901Z,-23447.22
2023-04-13T10:44:15.810Z,-23452.16
2023-04-13T10:46:18.909Z,-23453.56
2023-04-13T10:48:23.091Z,-23466.56
2023-04-13T10:50:27.917Z,-23458.03
2023-04-13T10:52:31.570Z,-23447.53
2023-04-13T10:54:36.017Z,-23448.19
2023-04-13T10:56:38.929Z,-23444.38
2023-04-13T10:58:42.107Z,-23444.22
2023-04-13T11:00:47.091Z,-23442.47
2023-04-13T11:02:51.346Z,-23455.63
2023-04-13T11:04:55.922Z,-23452.94
2023-04-13T11:06:59.180Z,-23462.47
2023-04-13T11:09:04.174Z,-23453.72
2023-04-13T11:11:07.091Z,-23456.44
2023-04-13T11:13:09.820Z,-23450.09
2023-04-13T11:15:20.484Z,-23457.53
2023-04-13T11:17:23.485Z,-23464.53
2023-04-13T11:19:26.406Z,-23454.53
2023-04-13T11:21:31.699Z,-23462.63
2023-04-13T11:23:34.793Z,-23462.94
2023-04-13T11:25:37.754Z,-23474.19
2023-04-13T11:27:40.818Z,-23482.44
2023-04-13T11:29:43.701Z,-23470.69
2023-04-13T11:31:46.827Z,-23456.75
2023-04-13T11:33:51.442Z,-23459.91
2023-04-13T11:35:56.046Z,-23460.56
2023-04-13T11:38:00.266Z,-23448.19
2023-04-13T11:40:12.400Z,-23444.69
2023-04-13T11:42:15.193Z,-23437.72
2023-04-13T11:44:18.470Z,-23426.44
2023-04-13T11:46:25.053Z,-23426.59
2023-04-13T11:48:28.410Z,-23397.69
2023-04-13T11:50:31.666Z,-23391.97
2023-04-13T11:52:36.164Z,-23394.03
2023-04-13T11:54:42.863Z,-23399.59
2023-04-13T11:56:47.750Z,-23410.41
2023-04-13T11:58:53.092Z,-23404.03
2023-04-13T12:00:58.318Z,-23422.00
2023-04-13T12:03:15.288Z,-23441.84
2023-04-13T12:05:30.120Z,-23449.13
2023-04-13T12:07:33.440Z,-23470.06
2023-04-13T12:09:55.992Z,-23480.84
2023-04-13T12:12:29.924Z,-23466.75
2023-04-13T12:17:01.282Z,-23496.88
2023-04-13T12:18:52.427Z,-23482.75
2023-04-13T12:20:55.701Z,-23486.09
2023-04-13T12:23:05.842Z,-23491.00
2023-04-13T12:25:20.661Z,-23502.09
2023-04-13T12:27:24.642Z,-23490.38
2023-04-13T12:29:28.055Z,-23479.91
2023-04-13T12:31:34.872Z,-23464.38
2023-04-13T12:33:37.878Z,-23484.03
2023-04-13T12:35:40.624Z,-23476.41
2023-04-13T12:37:43.743Z,-23466.91
2023-04-13T12:39:46.549Z,-23464.38
2023-04-13T12:41:51.213Z,-23464.38
2023-04-13T12:43:54.167Z,-23458.97
2023-04-13T12:45:57.435Z,-23467.84
2023-04-13T12:48:00.186Z,-23475.47
2023-04-13T12:50:04.548Z,-23471.81
2023-04-13T12:52:07.440Z,-23476.09
2023-04-13T12:54:13.210Z,-23463.41
2023-04-13T12:56:16.031Z,-23463.56
2023-04-13T12:58:20.112Z,-23458.66
2023-04-13T13:00:23.294Z,-23457.53
2023-04-13T13:02:28.162Z,-23457.06
2023-04-13T13:04:31.003Z,-23456.44
2023-04-13T13:06:33.912Z,-23459.75
2023-04-13T13:08:39.385Z,-23476.56
2023-04-13T13:10:43.502Z,-23452.94
2023-04-13T13:12:46.717Z,-23461.03
2023-04-13T13:14:50.783Z,-23467.69
2023-04-13T13:16:53.783Z,-23458.97
2023-04-13T13:18:56.706Z,-23464.53
2023-04-13T13:20:59.412Z,-23469.75
2023-04-13T13:23:02.101Z,-23473.72
2023-04-13T13:25:05.945Z,-23490.22
2023-04-13T13:29:15.173Z,-23496.88
2023-04-13T13:31:19.512Z,-23483.72
2023-04-13T13:33:23.229Z,-23478.78
2023-04-13T13:35:26.352Z,-23452.94
2023-04-13T13:37:29.037Z,-23431.84
2023-04-13T13:39:32.159Z,-23430.09
2023-04-13T13:41:34.846Z,-23429.13
2023-04-13T13:43:37.642Z,-23410.56
2023-04-13T13:45:40.611Z,-23387.84
2023-04-13T13:47:44.683Z,-23381.31
2023-04-13T13:49:47.369Z,-23383.69
2023-04-13T13:51:50.220Z,-23387.34
2023-04-13T13:53:52.922Z,-23405.00
2023-04-13T13:55:56.338Z,-23411.97
2023-04-13T13:57:59.064Z,-23419.94
2023-04-13T14:00:13.297Z,-23425.16
2023-04-13T14:02:16.047Z,-23424.69
2023-04-13T14:04:20.145Z,-23422.47
2023-04-13T14:06:22.893Z,-23425.97
2023-04-13T14:08:25.688Z,-23434.22
2023-04-13T14:10:28.432Z,-23443.09
2023-04-13T14:12:31.190Z,-23429.44
2023-04-13T14:14:33.960Z,-23436.91
2023-04-13T14:16:36.647Z,-23442.00
2023-04-13T14:18:39.379Z,-23428.19
2023-04-13T14:20:44.794Z,-23430.56
2023-04-13T14:22:47.496Z,-23429.78
2023-04-13T14:24:51.708Z,-23417.38
2023-04-13T14:26:54.412Z,-23416.59
2023-04-13T14:28:57.342Z,-23417.38
2023-04-13T14:31:00.111Z,-23417.69
2023-04-13T14:33:03.995Z,-23422.31
2023-04-13T14:35:07.079Z,-23410.56
2023-04-13T14:37:11.530Z,-23415.16
2023-04-13T14:39:16.102Z,-23400.38
2023-04-13T14:41:18.816Z,-23398.31
2023-04-13T14:43:21.697Z,-23400.22
2023-04-13T14:45:24.585Z,-23407.22
2023-04-13T14:47:27.320Z,-23411.97
2023-04-13T14:49:30.040Z,-23410.41
2023-04-13T14:51:32.874Z,-23411.97
2023-04-13T14:53:36.929Z,-23409.44
2023-04-13T14:55:39.725Z,-23408.16
2023-04-13T14:57:42.598Z,-23403.41
2023-04-13T14:59:45.983Z,-23390.53
2023-04-13T15:01:49.018Z,-23404.34
2023-04-13T15:03:53.420Z,-23399.59
2023-04-13T15:06:03.409Z,-23402.28
2023-04-13T15:08:08.350Z,-23395.78
2023-04-13T15:10:12.816Z,-23402.28
2023-04-13T15:12:15.531Z,-23401.81
2023-04-13T15:14:18.239Z,-23410.72
2023-04-13T15:16:21.340Z,-23407.22
2023-04-13T15:18:24.123Z,-23402.63
2023-04-13T15:20:26.975Z,-23405.00
2023-04-13T15:22:30.998Z,-23407.84
2023-04-13T15:24:33.686Z,-23403.72
2023-04-13T15:26:40.889Z,-23405.47
2023-04-13T15:28:43.629Z,-23407.53
2023-04-13T15:30:46.454Z,-23409.91
2023-04-13T15:32:50.300Z,-23405.47
2023-04-13T15:34:56.173Z,-23401.34
2023-04-13T15:36:59.436Z,-23401.81
2023-04-13T15:39:02.660Z,-23402.63
2023-04-13T15:41:05.630Z,-23404.53
2023-04-13T15:43:09.741Z,-23396.72
2023-04-13T15:45:12.607Z,-23394.50
2023-04-13T15:47:15.450Z,-23395.00
2023-04-13T15:49:18.144Z,-23394.19
2023-04-13T15:51:21.294Z,-23399.28
2023-04-13T15:53:25.791Z,-23395.16
2023-04-13T15:55:29.523Z,-23388.16
2023-04-13T15:57:32.742Z,-23386.72
2023-04-13T15:59:36.783Z,-23389.44
2023-04-13T16:01:45.773Z,-23399.75
2023-04-13T16:03:48.693Z,-23391.97
2023-04-13T16:05:51.690Z,-23391.97
2023-04-13T16:07:54.920Z,-23398.31
2023-04-13T16:09:58.391Z,-23393.88
2023-04-13T16:12:02.712Z,-23396.41
2023-04-13T16:14:07.317Z,-23394.50
2023-04-13T16:16:14.418Z,-23392.28
2023-04-13T16:18:18.555Z,-23391.97
2023-04-13T16:20:22.212Z,-23388.63
2023-04-13T16:22:25.020Z,-23390.38
2023-04-13T16:24:28.696Z,-23392.59
2023-04-13T16:26:31.521Z,-23393.56
2023-04-13T16:28:34.630Z,-23393.41
2023-04-13T16:30:39.493Z,-23398.78
2023-04-13T16:32:44.588Z,-23401.19
2023-04-13T16:34:47.370Z,-23395.78
2023-04-13T16:36:50.133Z,-23399.91
2023-04-13T16:38:54.341Z,-23395.94
2023-04-13T16:40:57.114Z,-23398.31
2023-04-13T16:42:59.926Z,-23399.75
2023-04-13T16:45:02.766Z,-23396.41
2023-04-13T16:47:05.694Z,-23398.97
2023-04-13T16:49:10.291Z,-23395.47
2023-04-13T16:51:12.963Z,-23399.59
2023-04-13T16:53:17.419Z,-23407.06
2023-04-13T16:55:20.086Z,-23398.31
2023-04-13T16:57:22.779Z,-23409.59
2023-04-13T16:59:25.495Z,-23399.13
2023-04-13T17:01:28.879Z,-23408.81
2023-04-13T17:03:31.890Z,-23405.00
2023-04-13T17:05:36.633Z,-23399.28
2023-04-13T17:07:40.535Z,-23402.44
2023-04-13T17:09:43.488Z,-23398.00
2023-04-13T17:11:46.254Z,-23398.66
2023-04-13T17:13:48.944Z,-23401.81
2023-04-13T17:15:51.727Z,-23399.28
2023-04-13T17:17:54.849Z,-23402.94
2023-04-13T17:19:57.617Z,-23385.78
2023-04-13T17:22:01.828Z,-23394.50
2023-04-13T17:24:04.860Z,-23398.31
2023-04-13T17:26:07.530Z,-23390.69
2023-04-13T17:28:10.220Z,-23393.72
2023-04-13T17:30:13.580Z,-23389.09
2023-04-13T17:32:16.603Z,-23389.09
2023-04-13T17:34:19.454Z,-23389.75
2023-04-13T17:36:22.774Z,-23388.78
2023-04-13T17:38:26.864Z,-23386.56
2023-04-13T17:40:29.511Z,-23389.44
2023-04-13T17:42:32.235Z,-23388.16
2023-04-13T17:44:34.921Z,-23385.59
2023-04-13T17:46:37.614Z,-23380.84
2023-04-13T17:48:40.776Z,-23384.66
2023-04-13T17:50:43.700Z,-23382.44
2023-04-13T17:52:46.451Z,-23388.78
2023-04-13T17:54:50.904Z,-23390.69
2023-04-13T17:56:53.661Z,-23388.63
2023-04-13T17:58:56.334Z,-23385.28
2023-04-13T18:00:58.978Z,-23383.06
2023-04-13T18:03:05.188Z,-23381.78
2023-04-13T18:05:15.116Z,-23379.25
2023-04-13T18:07:18.279Z,-23381.16
2023-04-13T18:09:22.488Z,-23389.44
2023-04-13T18:11:26.522Z,-23392.75
2023-04-13T18:13:29.609Z,-23391.16
2023-04-13T18:15:32.388Z,-23388.78
2023-04-13T18:17:35.263Z,-23386.56
2023-04-13T18:19:37.978Z,-23384.81
2023-04-13T18:21:40.645Z,-23384.03
2023-04-13T18:23:43.305Z,-23377.97
2023-04-13T18:25:48.236Z,-23376.88
2023-04-13T18:27:52.230Z,-23374.63
2023-04-13T18:29:55.473Z,-23371.63
2023-04-13T18:31:58.224Z,-23367.97
2023-04-13T18:34:01.284Z,-23362.06
2023-04-13T18:36:04.191Z,-23359.84
2023-04-13T18:38:06.894Z,-23356.84
2023-04-13T18:40:10.924Z,-23352.22
2023-04-13T18:42:13.592Z,-23349.66
2023-04-13T18:44:17.623Z,-23344.59
2023-04-13T18:46:20.430Z,-23344.25
2023-04-13T18:48:23.125Z,-23344.25
2023-04-13T18:50:26.534Z,-23340.75
2023-04-13T18:52:29.926Z,-23341.56
2023-04-13T18:54:33.176Z,-23337.91
2023-04-13T18:56:36.071Z,-23336.16
2023-04-13T18:58:38.971Z,-23331.53
2023-04-13T19:00:43.038Z,-23331.84
2023-04-13T19:02:48.310Z,-23332.47
2023-04-13T19:04:51.252Z,-23334.25
2023-04-13T19:06:54.055Z,-23335.19
2023-04-13T19:08:56.695Z,-23334.06
2023-04-13T19:10:59.321Z,-23335.97
2023-04-13T19:13:02.028Z,-23333.59
2023-04-13T19:15:05.276Z,-23330.88
2023-04-13T19:17:09.318Z,-23331.84
2023-04-13T19:19:13.176Z,-23331.22
2023-04-13T19:21:18.368Z,-23334.72
2023-04-13T19:23:21.029Z,-23339.00
2023-04-13T19:25:23.901Z,-23336.47
2023-04-13T19:27:28.676Z,-23335.50
2023-04-13T19:29:31.637Z,-23341.41
2023-04-13T19:31:37.740Z,-23335.97
2023-04-13T19:33:42.222Z,-23332.47
2023-04-13T19:35:44.950Z,-23336.63
2023-04-13T19:37:47.664Z,-23339.50
2023-04-13T19:39:50.367Z,-23338.22
2023-04-13T19:41:53.288Z,-23333.91
2023-04-13T19:43:56.230Z,-23336.63
2023-04-13T19:45:58.997Z,-23336.63
2023-04-13T19:48:01.718Z,-23337.75
2023-04-13T19:50:07.364Z,-23340.44
2023-04-13T19:52:16.023Z,-23337.25
2023-04-13T19:54:18.748Z,-23332.00
2023-04-13T19:56:23.963Z,-23341.88
2023-04-13T19:58:26.739Z,-23331.53
2023-04-13T20:00:29.925Z,-23328.34
2023-04-13T20:02:32.696Z,-23334.72
2023-04-13T20:04:35.799Z,-23333.13
2023-04-13T20:06:40.109Z,-23330.88
2023-04-13T20:08:44.544Z,-23333.13
2023-04-13T20:10:47.321Z,-23326.75
2023-04-13T20:12:50.041Z,-23325.81
2023-04-13T20:14:53.438Z,-23326.28
2023-04-13T20:16:56.468Z,-23327.56
2023-04-13T20:18:59.154Z,-23328.97
2023-04-13T20:21:01.806Z,-23333.75
2023-04-13T20:23:07.825Z,-23332.81
2023-04-13T20:25:11.164Z,-23334.41
2023-04-13T20:27:13.870Z,-23336.16
2023-04-13T20:29:21.640Z,-23333.44
2023-04-13T20:31:25.470Z,-23335.66
2023-04-13T20:33:28.164Z,-23333.13
2023-04-13T20:35:30.761Z,-23330.56
2023-04-13T20:37:33.493Z,-23327.72
2023-04-13T20:39:40.186Z,-23329.94
2023-04-13T20:41:54.870Z,-23330.41
2023-04-13T20:43:58.759Z,-23332.81
2023-04-13T20:46:01.844Z,-23331.69
2023-04-13T20:50:10.894Z,-23328.97
2023-04-13T20:52:14.529Z,-23332.47
2023-04-13T20:54:17.475Z,-23333.75
2023-04-13T20:56:24.350Z,-23334.72
2023-04-13T20:58:28.720Z,-23336.63
2023-04-13T21:00:32.478Z,-23335.97
2023-04-13T21:02:35.428Z,-23329.63
2023-04-13T21:04:38.225Z,-23331.53
2023-04-13T21:06:41.180Z,-23336.47
2023-04-13T21:08:43.896Z,-23337.09
2023-04-13T21:10:46.786Z,-23334.06
2023-04-13T21:12:50.749Z,-23334.41
2023-04-13T21:14:53.481Z,-23336.47
2023-04-13T21:16:56.427Z,-23338.38
2023-04-13T21:18:59.170Z,-23337.56
2023-04-13T21:21:01.846Z,-23337.56
2023-04-13T21:23:04.612Z,-23340.59
2023-04-13T21:25:08.211Z,-23343.78
2023-04-13T21:27:10.896Z,-23339.31
2023-04-13T21:29:16.369Z,-23340.59
2023-04-13T21:31:19.035Z,-23337.56
2023-04-13T21:33:21.838Z,-23339.50
2023-04-13T21:35:24.557Z,-23341.41
2023-04-13T21:37:28.922Z,-23339.81
2023-04-13T21:39:31.674Z,-23334.06
2023-04-13T21:41:34.443Z,-23330.88
2023-04-13T21:43:37.168Z,-23331.53
2023-04-13T21:45:41.177Z,-23335.19
2023-04-13T21:47:44.061Z,-23336.94
2023-04-13T21:49:46.943Z,-23336.63
2023-04-13T21:51:50.623Z,-23338.53
2023-04-13T21:53:53.617Z,-23339.97
2023-04-13T21:55:56.574Z,-23340.59
2023-04-13T21:57:59.275Z,-23343.94
2023-04-13T22:00:03.311Z,-23344.25
2023-04-13T22:02:08.657Z,-23343.63
2023-04-13T22:04:12.624Z,-23340.75
2023-04-13T22:06:15.976Z,-23338.53
2023-04-13T22:08:18.764Z,-23341.72
2023-04-13T22:10:21.486Z,-23340.75
2023-04-13T22:12:24.235Z,-23338.38
2023-04-13T22:14:26.911Z,-23339.31
2023-04-13T22:16:29.559Z,-23337.91
2023-04-13T22:18:33.567Z,-23342.81
2023-04-13T22:20:36.506Z,-23338.53
2023-04-13T22:22:39.146Z,-23343.94
2023-04-13T22:24:41.780Z,-23340.75
2023-04-13T22:26:44.490Z,-23341.06
2023-04-13T22:28:47.130Z,-23338.53
2023-04-13T22:30:51.742Z,-23339.81
2023-04-13T22:32:54.545Z,-23341.06
2023-04-13T22:34:59.254Z,-23343.31
2023-04-13T22:37:04.484Z,-23340.44
2023-04-13T22:39:07.669Z,-23339.31
2023-04-13T22:41:10.381Z,-23343.16
2023-04-13T22:43:13.106Z,-23344.09
2023-04-13T22:45:15.936Z,-23344.59
2023-04-13T22:47:18.652Z,-23339.81
2023-04-13T22:49:21.851Z,-23342.66
2023-04-13T22:51:26.544Z,-23347.13
2023-04-13T22:53:29.663Z,-23343.94
2023-04-13T22:55:32.484Z,-23344.25
2023-04-13T22:57:35.490Z,-23341.25
2023-04-13T22:59:38.208Z,-23342.66
2023-04-13T23:01:41.034Z,-23344.59
2023-04-13T23:03:43.951Z,-23347.13
2023-04-13T23:05:46.772Z,-23346.00
2023-04-13T23:07:51.485Z,-23342.19
2023-04-13T23:09:54.115Z,-23348.09
2023-04-13T23:11:57.297Z,-23344.25
2023-04-13T23:14:00.623Z,-23351.41
2023-04-13T23:16:05.090Z,-23350.47
2023-04-13T23:18:08.134Z,-23348.72
2023-04-13T23:20:11.579Z,-23347.75
2023-04-13T23:22:14.300Z,-23348.09
2023-04-13T23:24:18.437Z,-23345.53
2023-04-13T23:26:21.300Z,-23350.31
2023-04-13T23:28:24.765Z,-23345.06
2023-04-13T23:30:27.426Z,-23347.44
2023-04-13T23:32:30.133Z,-23350.00
2023-04-13T23:34:33.027Z,-23346.00
2023-04-13T23:36:35.724Z,-23348.72
2023-04-13T23:38:38.635Z,-23350.31
2023-04-13T23:40:42.678Z,-23349.50
2023-04-13T23:42:45.410Z,-23351.59